Terminal Aerodrome Forecast
Issued by NWS

Home | Current Version | Previous Version | Text Only | Print | Product List | Glossary On
Versions: 1 2 3 4 5 6 7 8 9 10 11 12 13 14 15
756
FTUS45 KVEF 051120
TAFVGT
TAF
KVGT 051120Z 0512/0612 33005KT P6SM BKN250
     FM051500 VRB05KT P6SM BKN250
     FM060300 32006KT P6SM BKN200=

USA.gov is the U.S. government's official web portal to all federal, state and local government web resources and services.